createdAt,value
2018-04-14T00:01:37.606Z,6.67
2018-04-14T00:04:03.764Z,6.70
2018-04-14T00:06:30.681Z,8.23
2018-04-14T00:08:56.862Z,6.60
2018-04-14T00:11:23.071Z,9.93
2018-04-14T00:13:49.988Z,7.30
2018-04-14T00:16:16.145Z,5.17
2018-04-14T00:18:43.073Z,7.73
2018-04-14T00:21:09.242Z,7.27
2018-04-14T00:23:35.437Z,9.03
2018-04-14T00:26:03.095Z,8.33
2018-04-14T00:28:29.396Z,7.07
2018-04-14T00:30:55.600Z,9.60
2018-04-14T00:33:22.517Z,8.87
2018-04-14T00:35:49.477Z,6.53
2018-04-14T00:38:15.653Z,10.97
2018-04-14T00:40:41.857Z,7.00
2018-04-14T00:43:08.781Z,8.97
2018-04-14T00:45:34.966Z,7.27
2018-04-14T00:48:01.173Z,7.63
2018-04-14T00:50:28.083Z,6.07
2018-04-14T00:52:54.281Z,7.30
2018-04-14T00:55:20.490Z,7.77
2018-04-14T00:57:47.421Z,5.83
2018-04-14T01:00:14.368Z,8.30
2018-04-14T01:02:40.550Z,7.50
2018-04-14T01:05:06.733Z,9.70
2018-04-14T01:07:32.915Z,10.53
2018-04-14T01:09:59.072Z,6.97
2018-04-14T01:12:25.277Z,10.97
2018-04-14T01:14:51.445Z,10.67
2018-04-14T01:17:17.632Z,10.17
2018-04-14T01:19:43.857Z,9.00
2018-04-14T01:22:10.783Z,9.13
2018-04-14T01:24:37.001Z,9.03
2018-04-14T01:27:03.189Z,8.53
2018-04-14T01:29:29.379Z,7.37
2018-04-14T01:31:55.566Z,7.63
2018-04-14T01:34:21.747Z,7.43
2018-04-14T01:36:47.958Z,6.90
2018-04-14T01:39:14.137Z,12.37
2018-04-14T01:41:41.079Z,7.60
2018-04-14T01:44:07.989Z,10.37
2018-04-14T01:46:34.177Z,10.10
2018-04-14T01:49:00.369Z,9.50
2018-04-14T01:51:26.584Z,11.20
2018-04-14T01:53:52.770Z,9.90
2018-04-14T01:56:19.707Z,7.80
2018-04-14T01:58:46.621Z,7.10
2018-04-14T02:01:12.837Z,11.83
2018-04-14T02:03:38.997Z,9.43
2018-04-14T02:06:05.188Z,7.60
2018-04-14T02:08:31.383Z,10.27
2018-04-14T02:10:58.309Z,13.50
2018-04-14T02:13:24.526Z,9.23
2018-04-14T02:15:50.702Z,11.57
2018-04-14T02:18:17.633Z,8.80
2018-04-14T02:20:43.822Z,11.90
2018-04-14T02:23:09.997Z,9.33
2018-04-14T02:25:36.206Z,8.43
2018-04-14T02:28:02.381Z,8.13
2018-04-14T02:30:29.296Z,8.20
2018-04-14T02:32:55.485Z,8.90
2018-04-14T02:35:21.653Z,8.10
2018-04-14T02:37:47.854Z,9.67
2018-04-14T02:40:14.060Z,8.87
2018-04-14T02:42:40.984Z,10.60
2018-04-14T02:45:07.161Z,7.90
2018-04-14T02:47:33.353Z,10.10
2018-04-14T02:49:59.530Z,8.13
2018-04-14T02:52:25.707Z,12.47
2018-04-14T02:54:51.915Z,11.00
2018-04-14T02:57:18.081Z,10.13
2018-04-14T02:59:44.249Z,12.17
2018-04-14T03:02:11.178Z,9.60
2018-04-14T03:04:37.361Z,12.07
2018-04-14T03:07:03.598Z,10.57
2018-04-14T03:09:29.766Z,11.53
2018-04-14T03:11:56.693Z,12.27
2018-04-14T03:14:22.881Z,10.27
2018-04-14T03:16:49.801Z,11.57
2018-04-14T03:19:16.010Z,11.83
2018-04-14T03:21:42.189Z,9.80
2018-04-14T03:24:09.115Z,13.30
2018-04-14T03:26:35.297Z,12.57
2018-04-14T03:29:01.466Z,11.97
2018-04-14T03:31:27.674Z,13.83
2018-04-14T03:33:53.848Z,11.27
2018-04-14T03:36:20.027Z,11.30
2018-04-14T03:38:47.085Z,16.63
2018-04-14T03:41:13.281Z,10.93
2018-04-14T03:43:40.221Z,9.50
2018-04-14T03:46:07.137Z,10.83
2018-04-14T03:48:33.318Z,11.33
2018-04-14T03:51:00.259Z,10.67
2018-04-14T03:53:27.162Z,12.00
2018-04-14T03:55:54.101Z,11.37
2018-04-14T03:58:20.272Z,10.27
2018-04-14T04:00:46.494Z,10.07
2018-04-14T04:03:12.684Z,11.33
2018-04-14T04:05:38.873Z,11.77
2018-04-14T04:08:05.087Z,11.00
2018-04-14T04:10:31.270Z,14.20
2018-04-14T04:12:57.458Z,14.13
2018-04-14T04:15:23.640Z,12.23
2018-04-14T04:17:50.548Z,15.33
2018-04-14T04:23:30.505Z,10.77
2018-04-14T04:25:56.684Z,10.57
2018-04-14T04:28:22.865Z,9.13
2018-04-14T04:30:49.839Z,12.70
2018-04-14T04:33:16.761Z,12.73
2018-04-14T04:35:42.941Z,9.63
2018-04-14T04:38:09.133Z,11.63
2018-04-14T04:40:36.074Z,12.10
2018-04-14T04:43:02.273Z,11.93
2018-04-14T04:45:28.462Z,12.63
2018-04-14T04:47:55.390Z,11.33
2018-04-14T04:50:21.590Z,11.90
2018-04-14T04:52:47.772Z,12.00
2018-04-14T04:55:13.969Z,9.40
2018-04-14T04:57:40.150Z,9.83
2018-04-14T05:00:07.052Z,10.70
2018-04-14T05:02:33.258Z,9.70
2018-04-14T05:04:59.437Z,8.53
2018-04-14T05:07:25.650Z,11.50
2018-04-14T05:09:51.804Z,10.30
2018-04-14T05:12:17.994Z,10.97
2018-04-14T05:14:44.186Z,12.23
2018-04-14T05:17:10.383Z,9.30
2018-04-14T05:19:36.599Z,9.57
2018-04-14T05:22:02.795Z,10.83
2018-04-14T05:24:29.739Z,12.63
2018-04-14T05:26:56.668Z,9.67
2018-04-14T05:29:22.837Z,12.13
2018-04-14T05:31:49.781Z,10.20
2018-04-14T05:34:16.702Z,15.63
2018-04-14T05:36:42.887Z,9.30
2018-04-14T05:39:09.729Z,10.77
2018-04-14T05:41:35.905Z,10.73
2018-04-14T05:44:02.282Z,9.90
2018-04-14T05:46:29.219Z,11.67
2018-04-14T05:48:56.139Z,10.10
2018-04-14T05:51:22.334Z,15.30
2018-04-14T05:53:48.499Z,12.80
2018-04-14T05:56:14.758Z,10.33
2018-04-14T05:58:41.681Z,9.07
2018-04-14T06:01:07.886Z,13.40
2018-04-14T06:03:34.056Z,13.77
2018-04-14T06:06:00.245Z,11.03
2018-04-14T06:08:26.462Z,8.50
2018-04-14T06:10:53.373Z,11.40
2018-04-14T06:13:19.555Z,13.37
2018-04-14T06:15:45.753Z,11.80
2018-04-14T06:18:11.934Z,12.47
2018-04-14T06:20:38.134Z,12.47
2018-04-14T06:23:05.238Z,14.07
2018-04-14T06:25:31.445Z,13.60
2018-04-14T06:27:57.630Z,12.33
2018-04-14T06:30:24.555Z,11.80
2018-04-14T06:32:50.768Z,12.60
2018-04-14T06:35:16.941Z,14.03
2018-04-14T06:37:43.127Z,12.20
2018-04-14T06:40:09.415Z,11.10
2018-04-14T06:42:35.654Z,13.00
2018-04-14T06:45:01.879Z,10.93
2018-04-14T06:47:28.065Z,12.40
2018-04-14T06:49:54.253Z,10.47
2018-04-14T06:52:20.442Z,14.50
2018-04-14T06:54:46.671Z,13.37
2018-04-14T06:57:12.901Z,11.67
2018-04-14T06:59:39.817Z,13.60
2018-04-14T07:02:06.742Z,14.67
2018-04-14T07:04:32.981Z,12.37
2018-04-14T07:06:59.113Z,12.73
2018-04-14T07:09:25.338Z,10.23
2018-04-14T07:11:51.516Z,13.73
2018-04-14T07:14:17.692Z,14.50
2018-04-14T07:16:43.864Z,10.23
2018-04-14T07:19:10.782Z,10.33
2018-04-14T07:21:37.033Z,10.27
2018-04-14T07:24:03.961Z,13.93
2018-04-14T07:26:30.151Z,12.27
2018-04-14T07:28:56.383Z,13.80
2018-04-14T07:31:22.541Z,12.03
2018-04-14T07:33:48.757Z,13.47
2018-04-14T07:36:14.943Z,13.83
2018-04-14T07:38:41.136Z,15.27
2018-04-14T07:41:07.339Z,11.73
2018-04-14T07:43:33.529Z,13.97
2018-04-14T07:46:00.714Z,15.90
2018-04-14T07:48:27.622Z,14.33
2018-04-14T07:50:53.791Z,15.23
2018-04-14T07:53:20.709Z,13.60
2018-04-14T07:55:46.887Z,12.77
2018-04-14T07:58:13.822Z,14.97
2018-04-14T08:00:40.773Z,14.43
2018-04-14T08:03:07.727Z,13.83
2018-04-14T08:05:34.637Z,13.27
2018-04-14T08:08:00.833Z,17.43
2018-04-14T08:10:26.996Z,15.37
2018-04-14T08:12:53.174Z,12.80
2018-04-14T08:15:20.148Z,14.67
2018-04-14T08:17:46.334Z,14.00
2018-04-14T08:20:12.517Z,12.30
2018-04-14T08:22:39.510Z,15.27
2018-04-14T08:25:05.693Z,14.50
2018-04-14T08:27:31.885Z,13.83
2018-04-14T08:29:58.065Z,14.07
2018-04-14T08:32:24.241Z,13.83
2018-04-14T08:34:50.459Z,16.20
2018-04-14T08:37:16.658Z,15.77
2018-04-14T08:39:42.841Z,12.60
2018-04-14T08:42:09.741Z,13.13
2018-04-14T08:44:35.903Z,13.40
2018-04-14T08:47:02.114Z,13.23
2018-04-14T08:49:28.287Z,12.23
2018-04-14T08:51:54.463Z,12.47
2018-04-14T08:54:20.658Z,12.97
2018-04-14T08:56:46.841Z,13.17
2018-04-14T08:59:13.034Z,10.73
2018-04-14T09:01:39.967Z,9.90
2018-04-14T09:04:06.137Z,10.13
2018-04-14T09:06:33.077Z,15.03
2018-04-14T09:09:00.000Z,11.07
2018-04-14T09:11:26.205Z,12.40
2018-04-14T09:13:52.389Z,9.50
2018-04-14T09:16:19.298Z,10.83
2018-04-14T09:18:45.499Z,11.73
2018-04-14T09:21:11.696Z,10.67
2018-04-14T09:23:38.641Z,14.27
2018-04-14T09:26:04.826Z,12.13
2018-04-14T09:28:31.009Z,13.33
2018-04-14T09:30:57.941Z,13.30
2018-04-14T09:33:24.119Z,12.90
2018-04-14T09:35:50.308Z,10.83
2018-04-14T09:38:16.469Z,10.27
2018-04-14T09:40:43.381Z,13.40
2018-04-14T09:43:10.166Z,11.57
2018-04-14T09:45:37.110Z,14.60
2018-04-14T09:48:04.053Z,12.83
2018-04-14T09:50:30.962Z,11.80
2018-04-14T09:52:57.148Z,11.73
2018-04-14T09:55:24.082Z,11.83
2018-04-14T09:57:50.266Z,13.37
2018-04-14T10:00:22.620Z,12.77
2018-04-14T10:02:48.812Z,15.17
2018-04-14T10:05:14.980Z,12.40
2018-04-14T10:07:41.170Z,12.77
2018-04-14T10:10:08.118Z,12.50
2018-04-14T10:12:34.320Z,12.20
2018-04-14T10:15:00.489Z,9.70
2018-04-14T10:17:26.692Z,13.97
2018-04-14T10:19:52.876Z,11.50
2018-04-14T10:22:19.787Z,11.70
2018-04-14T10:24:46.011Z,11.67
2018-04-14T10:27:12.194Z,16.13
2018-04-14T10:29:39.122Z,9.97
2018-04-14T10:32:06.784Z,12.40
2018-04-14T10:34:32.966Z,11.33
2018-04-14T10:36:59.152Z,11.73
2018-04-14T10:39:25.334Z,9.83
2018-04-14T10:41:51.530Z,13.60
2018-04-14T10:44:18.465Z,13.83
2018-04-14T10:46:44.640Z,11.60
2018-04-14T10:49:10.864Z,11.77
2018-04-14T10:51:37.778Z,10.57
2018-04-14T10:54:03.969Z,13.97
2018-04-14T10:56:30.176Z,13.10
2018-04-14T10:58:57.111Z,10.60
2018-04-14T11:01:23.305Z,12.23
2018-04-14T11:03:49.472Z,11.47
2018-04-14T11:06:15.675Z,15.77
2018-04-14T11:08:41.877Z,14.50
2018-04-14T11:11:08.066Z,11.50
2018-04-14T11:13:34.286Z,14.67
2018-04-14T11:16:00.456Z,13.63
2018-04-14T11:18:27.378Z,12.50
2018-04-14T11:20:53.571Z,12.53
2018-04-14T11:23:19.754Z,12.23
2018-04-14T11:25:46.713Z,11.27
2018-04-14T11:28:13.630Z,13.17
2018-04-14T11:30:39.825Z,13.30
2018-04-14T11:33:06.029Z,12.83
2018-04-14T11:35:32.948Z,11.90
2018-04-14T11:37:59.147Z,11.33
2018-04-14T11:40:25.321Z,11.60
2018-04-14T11:42:51.501Z,11.27
2018-04-14T11:45:17.694Z,12.67
2018-04-14T11:47:43.868Z,13.67
2018-04-14T11:50:10.153Z,10.93
2018-04-14T11:52:36.340Z,13.33
2018-04-14T11:55:02.555Z,12.10
2018-04-14T11:57:28.749Z,12.10
2018-04-14T11:59:54.914Z,10.10
2018-04-14T12:02:22.174Z,11.30
2018-04-14T12:04:48.363Z,12.53
2018-04-14T12:07:14.579Z,10.77
2018-04-14T12:09:40.758Z,13.17
2018-04-14T12:12:07.681Z,8.67
2018-04-14T12:14:33.885Z,10.53
2018-04-14T12:17:00.061Z,10.73
2018-04-14T12:19:26.988Z,9.93
2018-04-14T12:21:53.169Z,10.43
2018-04-14T12:24:20.093Z,10.17
2018-04-14T12:26:46.289Z,11.60
2018-04-14T12:29:12.465Z,12.10
2018-04-14T12:31:38.626Z,9.60
2018-04-14T12:34:04.845Z,10.83
2018-04-14T12:36:31.760Z,12.20
2018-04-14T12:38:57.970Z,10.77
2018-04-14T12:41:24.183Z,9.17
2018-04-14T12:43:50.371Z,9.97
2018-04-14T12:46:17.306Z,11.23
2018-04-14T12:48:44.212Z,9.80
2018-04-14T12:51:10.406Z,9.23
2018-04-14T12:53:37.372Z,10.13
2018-04-14T12:56:04.287Z,9.20
2018-04-14T12:58:30.453Z,10.93
2018-04-14T13:00:57.393Z,9.23
2018-04-14T13:03:24.300Z,10.13
2018-04-14T13:05:50.475Z,11.27
2018-04-14T13:08:17.437Z,9.43
2018-04-14T13:10:44.366Z,9.33
2018-04-14T13:13:10.540Z,8.10
2018-04-14T13:15:36.940Z,8.60
2018-04-14T13:18:03.874Z,11.77
2018-04-14T13:20:30.049Z,9.10
2018-04-14T13:22:56.241Z,8.10
2018-04-14T13:25:22.420Z,9.80
2018-04-14T13:27:48.644Z,8.10
2018-04-14T13:30:15.549Z,9.27
2018-04-14T13:32:41.739Z,8.03
2018-04-14T13:35:07.940Z,8.63
2018-04-14T13:37:34.915Z,7.50
2018-04-14T13:40:01.058Z,9.40
2018-04-14T13:42:27.229Z,10.50
2018-04-14T13:44:53.391Z,8.87
2018-04-14T13:47:20.852Z,8.10
2018-04-14T13:49:47.758Z,8.13
2018-04-14T13:52:13.955Z,9.30
2018-04-14T13:54:40.125Z,8.20
2018-04-14T13:57:06.288Z,7.80
2018-04-14T13:59:32.475Z,8.00
2018-04-14T14:01:58.664Z,8.50
2018-04-14T14:04:25.642Z,8.27
2018-04-14T14:06:51.798Z,16.17
2018-04-14T14:09:18.721Z,9.27
2018-04-14T14:11:44.905Z,11.60
2018-04-14T14:14:11.101Z,8.33
2018-04-14T14:16:37.310Z,12.07
2018-04-14T14:19:04.230Z,10.03
2018-04-14T14:21:30.418Z,9.03
2018-04-14T14:23:56.622Z,9.17
2018-04-14T14:26:22.831Z,8.60
2018-04-14T14:28:49.898Z,11.53
2018-04-14T14:31:16.801Z,9.57
2018-04-14T14:33:42.952Z,10.63
2018-04-14T14:36:09.151Z,10.43
2018-04-14T14:38:35.337Z,12.23
2018-04-14T14:41:02.298Z,12.30
2018-04-14T14:43:29.254Z,10.03
2018-04-14T14:45:56.176Z,9.80
2018-04-14T14:48:23.103Z,13.70
2018-04-14T14:50:49.277Z,11.53
2018-04-14T14:53:16.229Z,11.50
2018-04-14T14:55:43.159Z,11.63
2018-04-14T14:58:09.342Z,8.50
2018-04-14T15:00:35.521Z,12.70
2018-04-14T15:03:01.692Z,8.50
2018-04-14T15:05:27.894Z,9.47
2018-04-14T15:07:54.061Z,10.30
2018-04-14T15:10:20.246Z,7.50
2018-04-14T15:12:46.431Z,8.37
2018-04-14T15:15:12.609Z,6.73
2018-04-14T15:17:38.799Z,7.90
2018-04-14T15:20:04.986Z,9.80
2018-04-14T15:22:31.163Z,6.57
2018-04-14T15:24:57.328Z,6.77
2018-04-14T15:27:23.594Z,6.80
2018-04-14T15:29:50.756Z,5.47
2018-04-14T15:32:17.673Z,7.27
2018-04-14T15:34:43.831Z,6.93
2018-04-14T15:37:10.778Z,4.50
2018-04-14T15:39:37.699Z,5.23
2018-04-14T15:42:03.921Z,5.37
2018-04-14T15:44:30.101Z,4.57
2018-04-14T15:46:57.043Z,5.00
2018-04-14T15:49:24.357Z,5.50
2018-04-14T15:51:50.538Z,4.67
2018-04-14T15:54:17.493Z,4.00
2018-04-14T15:56:44.408Z,3.97
2018-04-14T15:59:10.585Z,4.20
2018-04-14T16:01:36.790Z,4.43
2018-04-14T16:04:09.658Z,4.10
2018-04-14T16:06:29.198Z,6.10
2018-04-14T16:08:55.447Z,3.60
2018-04-14T16:11:21.615Z,3.80
2018-04-14T16:13:47.794Z,3.53
2018-04-14T16:16:13.973Z,4.53
2018-04-14T16:18:40.181Z,5.13
2018-04-14T16:21:06.363Z,4.37
2018-04-14T16:23:33.312Z,4.83
2018-04-14T16:25:59.480Z,4.00
2018-04-14T16:28:25.661Z,3.80
2018-04-14T16:30:52.011Z,3.87
2018-04-14T16:33:18.941Z,3.93
2018-04-14T16:35:45.105Z,4.60
2018-04-14T16:38:12.031Z,3.57
2018-04-14T16:40:38.957Z,3.47
2018-04-14T16:43:05.158Z,4.50
2018-04-14T16:45:31.334Z,3.50
2018-04-14T16:47:57.520Z,4.90
2018-04-14T16:50:23.723Z,4.00
2018-04-14T16:52:50.640Z,4.63
2018-04-14T16:55:16.862Z,4.97
2018-04-14T16:57:43.093Z,3.60
2018-04-14T17:00:09.278Z,4.00
2018-04-14T17:02:36.217Z,3.40
2018-04-14T17:05:02.405Z,3.47
2018-04-14T17:07:28.610Z,3.70
2018-04-14T17:09:54.801Z,4.87
2018-04-14T17:12:22.454Z,4.47
2018-04-14T17:14:48.650Z,5.17
2018-04-14T17:17:14.821Z,4.07
2018-04-14T17:19:41.038Z,3.77
2018-04-14T17:22:07.297Z,3.73
2018-04-14T17:24:33.479Z,5.87
2018-04-14T17:26:59.661Z,5.23
2018-04-14T17:29:25.841Z,5.07
2018-04-14T17:31:52.258Z,4.63
2018-04-14T17:34:19.170Z,5.03
2018-04-14T17:36:45.352Z,5.90
2018-04-14T17:39:11.538Z,5.00
2018-04-14T17:41:37.735Z,4.77
2018-04-14T17:44:03.938Z,5.93
2018-04-14T17:46:30.853Z,4.30
2018-04-14T17:48:57.037Z,5.07
2018-04-14T17:51:23.229Z,4.80
2018-04-14T17:53:49.402Z,4.77
2018-04-14T17:56:15.621Z,5.50
2018-04-14T17:58:42.524Z,4.37
2018-04-14T18:01:08.721Z,4.50
2018-04-14T18:03:34.920Z,4.53
2018-04-14T18:06:01.099Z,4.60
2018-04-14T18:08:27.273Z,6.70
2018-04-14T18:10:53.457Z,4.33
2018-04-14T18:13:19.634Z,6.27
2018-04-14T18:15:45.821Z,4.10
2018-04-14T18:18:12.008Z,4.93
2018-04-14T18:20:38.161Z,4.43
2018-04-14T18:23:05.090Z,6.83
2018-04-14T18:25:31.294Z,4.63
2018-04-14T18:27:57.465Z,4.50
2018-04-14T18:30:23.632Z,4.90
2018-04-14T18:32:49.814Z,4.53
2018-04-14T18:35:15.999Z,4.50
2018-04-14T18:37:42.402Z,4.67
2018-04-14T18:40:09.338Z,4.90
2018-04-14T18:42:35.506Z,4.63
2018-04-14T18:45:01.691Z,4.50
2018-04-14T18:47:27.906Z,5.13
2018-04-14T18:49:54.086Z,5.37
2018-04-14T18:52:21.171Z,5.10
2018-04-14T18:54:47.346Z,5.67
2018-04-14T18:57:13.619Z,3.80
2018-04-14T18:59:39.793Z,4.63
2018-04-14T19:02:06.005Z,3.97
2018-04-14T19:04:32.192Z,4.47
2018-04-14T19:06:58.369Z,4.67
2018-04-14T19:09:24.611Z,4.37
2018-04-14T19:11:50.797Z,5.40
2018-04-14T19:14:17.733Z,3.97
2018-04-14T19:16:43.913Z,4.43
2018-04-14T19:19:10.082Z,4.83
2018-04-14T19:21:36.278Z,4.83
2018-04-14T19:24:02.513Z,4.80
2018-04-14T19:26:28.713Z,5.47
2018-04-14T19:28:55.643Z,6.03
2018-04-14T19:31:21.809Z,6.30
2018-04-14T19:33:48.753Z,5.50
2018-04-14T19:36:15.685Z,7.00
2018-04-14T19:38:42.140Z,6.13
2018-04-14T19:41:09.065Z,6.17
2018-04-14T19:43:35.253Z,6.10
2018-04-14T19:46:01.429Z,5.97
2018-04-14T19:48:27.601Z,6.13
2018-04-14T19:50:53.797Z,5.97
2018-04-14T19:53:20.492Z,5.20
2018-04-14T19:55:46.730Z,5.63
2018-04-14T19:58:12.913Z,5.83
2018-04-14T20:00:39.088Z,5.83
2018-04-14T20:03:05.273Z,5.73
2018-04-14T20:05:31.451Z,6.00
2018-04-14T20:07:57.639Z,6.13
2018-04-14T20:10:23.830Z,5.60
2018-04-14T20:12:50.027Z,5.43
2018-04-14T20:15:16.978Z,6.00
2018-04-14T20:17:43.893Z,7.40
2018-04-14T20:20:10.062Z,7.80
2018-04-14T20:22:36.989Z,6.63
2018-04-14T20:25:03.189Z,8.07
2018-04-14T20:27:29.390Z,8.10
2018-04-14T20:29:55.561Z,6.23
2018-04-14T20:32:21.731Z,5.47
2018-04-14T20:34:48.054Z,5.67
2018-04-14T20:37:15.067Z,5.83
2018-04-14T20:39:42.273Z,5.83
2018-04-14T20:42:09.361Z,5.77
2018-04-14T20:44:35.724Z,5.67
2018-04-14T20:47:01.966Z,5.80
2018-04-14T20:49:28.245Z,6.27
2018-04-14T20:51:55.176Z,6.80
2018-04-14T20:54:22.001Z,6.60
2018-04-14T20:56:48.164Z,6.40
2018-04-14T20:59:15.092Z,6.27
2018-04-14T21:01:41.272Z,7.70
2018-04-14T21:04:07.505Z,7.17
2018-04-14T21:06:33.718Z,6.80
2018-04-14T21:08:59.904Z,6.67
2018-04-14T21:11:26.088Z,10.13
2018-04-14T21:13:53.009Z,6.10
2018-04-14T21:16:19.197Z,6.93
2018-04-14T21:18:45.377Z,6.90
2018-04-14T21:21:11.545Z,7.47
2018-04-14T21:23:38.490Z,6.20
2018-04-14T21:26:05.453Z,7.57
2018-04-14T21:28:31.647Z,6.77
2018-04-14T21:30:58.565Z,6.73
2018-04-14T21:33:24.778Z,5.63
2018-04-14T21:35:50.949Z,5.93
2018-04-14T21:38:17.157Z,6.50
2018-04-14T21:40:43.550Z,6.30
2018-04-14T21:43:10.468Z,7.17
2018-04-14T21:45:36.653Z,6.87
2018-04-14T21:48:02.841Z,6.93
2018-04-14T21:50:29.008Z,7.60
2018-04-14T21:52:55.210Z,7.23
2018-04-14T21:55:21.406Z,7.30
2018-04-14T21:57:47.569Z,6.40
2018-04-14T22:00:13.749Z,7.90
2018-04-14T22:02:39.930Z,7.73
2018-04-14T22:05:06.139Z,11.13
2018-04-14T22:07:32.312Z,9.90
2018-04-14T22:09:59.233Z,10.83
2018-04-14T22:12:25.425Z,8.23
2018-04-14T22:14:51.622Z,10.70
2018-04-14T22:17:17.818Z,10.07
2018-04-14T22:19:43.991Z,8.63
2018-04-14T22:22:10.933Z,9.90
2018-04-14T22:24:37.122Z,13.77
2018-04-14T22:27:03.301Z,13.47
2018-04-14T22:29:29.491Z,15.27
2018-04-14T22:31:55.690Z,14.60
2018-04-14T22:34:22.629Z,14.27
2018-04-14T22:36:49.562Z,18.97
2018-04-14T22:39:15.736Z,18.17
2018-04-14T22:41:41.942Z,19.27
2018-04-14T22:44:08.879Z,21.10
2018-04-14T22:46:35.825Z,17.10
2018-04-14T22:49:02.005Z,18.27
2018-04-14T22:51:28.185Z,16.20
2018-04-14T22:53:54.370Z,19.63
2018-04-14T22:56:20.562Z,21.13
2018-04-14T22:58:46.743Z,23.17
2018-04-14T23:01:12.954Z,24.47
2018-04-14T23:03:39.121Z,23.23
2018-04-14T23:06:05.288Z,22.33
2018-04-14T23:08:31.484Z,24.20
2018-04-14T23:10:57.657Z,25.10
2018-04-14T23:13:24.601Z,26.30
2018-04-14T23:15:51.526Z,24.90
2018-04-14T23:18:17.702Z,24.03
2018-04-14T23:20:44.657Z,22.53
2018-04-14T23:23:11.569Z,24.20
2018-04-14T23:25:37.754Z,24.27
2018-04-14T23:28:03.945Z,29.10
2018-04-14T23:30:30.117Z,26.73
2018-04-14T23:32:56.305Z,27.33
2018-04-14T23:35:22.490Z,26.10
2018-04-14T23:37:48.661Z,25.87
2018-04-14T23:40:14.853Z,27.10
2018-04-14T23:42:41.037Z,25.67
2018-04-14T23:45:07.541Z,24.80
2018-04-14T23:47:33.730Z,23.63
2018-04-14T23:50:00.670Z,26.50
2018-04-14T23:52:27.605Z,23.43
2018-04-14T23:54:53.776Z,26.63
2018-04-14T23:57:20.674Z,23.57
2018-04-14T23:59:46.857Z,26.40
